createdAt,value
2017-12-26T00:01:52.784Z,99700.55
2017-12-26T00:04:22.602Z,99700.64
2017-12-26T00:06:50.023Z,99685.91
2017-12-26T00:09:17.489Z,99678.02
2017-12-26T00:11:44.923Z,99677.48
2017-12-26T00:14:13.282Z,99678.80
2017-12-26T00:16:40.703Z,99675.38
2017-12-26T00:19:09.441Z,99669.97
2017-12-26T00:21:37.205Z,99669.30
2017-12-26T00:24:04.647Z,99662.73
2017-12-26T00:26:32.128Z,99651.82
2017-12-26T00:29:00.431Z,99650.87
2017-12-26T00:31:28.127Z,99649.69
2017-12-26T00:33:55.575Z,99647.59
2017-12-26T00:36:23.077Z,99640.90
2017-12-26T00:38:50.544Z,99636.29
2017-12-26T00:41:18.689Z,99640.64
2017-12-26T00:43:46.136Z,99639.61
2017-12-26T00:46:13.589Z,99635.11
2017-12-26T00:48:41.038Z,99632.88
2017-12-26T00:51:08.589Z,99629.98
2017-12-26T00:53:36.137Z,99637.61
2017-12-26T00:56:03.644Z,99623.79
2017-12-26T00:58:31.057Z,99621.28
2017-12-26T01:00:58.537Z,99620.23
2017-12-26T01:03:25.991Z,99630.23
2017-12-26T01:05:53.427Z,99614.84
2017-12-26T01:08:20.887Z,99611.94
2017-12-26T01:10:48.343Z,99615.75
2017-12-26T01:13:15.767Z,99610.22
2017-12-26T01:15:43.279Z,99610.34
2017-12-26T01:18:10.773Z,99611.15
2017-12-26T01:20:38.214Z,99603.49
2017-12-26T01:23:05.901Z,99610.75
2017-12-26T01:25:33.406Z,99599.81
2017-12-26T01:28:00.844Z,99598.10
2017-12-26T01:30:28.356Z,99601.00
2017-12-26T01:32:55.832Z,99597.45
2017-12-26T01:35:23.268Z,99598.64
2017-12-26T01:37:50.711Z,99600.49
2017-12-26T01:40:18.151Z,99598.77
2017-12-26T01:42:45.569Z,99597.19
2017-12-26T01:45:13.828Z,99592.73
2017-12-26T01:47:41.255Z,99589.42
2017-12-26T01:50:08.678Z,99581.39
2017-12-26T01:52:36.389Z,99576.80
2017-12-26T01:55:03.858Z,99578.36
2017-12-26T01:57:31.297Z,99574.55
2017-12-26T01:59:58.707Z,99570.46
2017-12-26T02:02:26.242Z,99560.73
2017-12-26T02:04:53.668Z,99562.84
2017-12-26T02:07:21.088Z,99553.63
2017-12-26T02:09:48.562Z,99547.31
2017-12-26T02:12:15.986Z,99548.77
2017-12-26T02:14:43.411Z,99544.28
2017-12-26T02:17:11.568Z,99536.52
2017-12-26T02:19:38.973Z,99534.28
2017-12-26T02:22:06.674Z,99527.70
2017-12-26T02:24:34.586Z,99529.80
2017-12-26T02:27:02.006Z,99528.48
2017-12-26T02:29:29.532Z,99521.13
2017-12-26T02:31:56.969Z,99519.81
2017-12-26T02:34:24.392Z,99517.69
2017-12-26T02:36:51.820Z,99511.24
2017-12-26T02:39:19.261Z,99510.87
2017-12-26T02:41:46.806Z,99514.41
2017-12-26T02:44:14.282Z,99508.61
2017-12-26T02:46:41.733Z,99503.11
2017-12-26T02:49:09.188Z,99500.48
2017-12-26T02:51:36.638Z,99498.08
2017-12-26T02:54:04.094Z,99501.12
2017-12-26T02:56:31.538Z,99490.45
2017-12-26T02:58:59.081Z,99489.41
2017-12-26T03:01:26.503Z,99481.78
2017-12-26T03:03:54.236Z,99486.00
2017-12-26T03:06:21.651Z,99475.98
2017-12-26T03:08:49.106Z,99476.89
2017-12-26T03:11:17.433Z,99469.13
2017-12-26T03:13:44.904Z,99473.34
2017-12-26T03:16:12.331Z,99465.98
2017-12-26T03:18:39.796Z,99469.53
2017-12-26T03:21:07.228Z,99466.63
2017-12-26T03:23:34.687Z,99467.16
2017-12-26T03:26:02.202Z,99461.50
2017-12-26T03:28:29.628Z,99464.12
2017-12-26T03:30:57.067Z,99457.55
2017-12-26T03:33:24.522Z,99462.95
2017-12-26T03:35:51.964Z,99455.05
2017-12-26T03:38:19.476Z,99455.32
2017-12-26T03:40:46.908Z,99451.64
2017-12-26T03:43:14.609Z,99445.70
2017-12-26T03:45:42.037Z,99440.56
2017-12-26T03:48:09.554Z,99445.43
2017-12-26T03:50:38.940Z,99445.83
2017-12-26T03:53:06.392Z,99445.97
2017-12-26T03:55:34.565Z,99443.34
2017-12-26T03:58:02.019Z,99437.80
2017-12-26T04:00:30.413Z,99438.71
2017-12-26T04:02:59.776Z,99426.86
2017-12-26T04:05:28.840Z,99421.73
2017-12-26T04:07:56.549Z,99417.41
2017-12-26T04:10:24.100Z,99414.11
2017-12-26T04:12:51.843Z,99408.84
2017-12-26T04:15:19.353Z,99404.25
2017-12-26T04:17:46.848Z,99402.80
2017-12-26T04:20:15.162Z,99395.80
2017-12-26T04:22:42.929Z,99396.21
2017-12-26T04:25:12.412Z,99394.48
2017-12-26T04:27:44.180Z,99386.84
2017-12-26T04:30:12.622Z,99389.62
2017-12-26T04:32:40.137Z,99380.00
2017-12-26T04:35:07.923Z,99381.70
2017-12-26T04:37:35.421Z,99376.45
2017-12-26T04:40:02.908Z,99370.24
2017-12-26T04:42:30.657Z,99373.55
2017-12-26T04:44:58.145Z,99366.71
2017-12-26T04:47:26.473Z,99372.11
2017-12-26T04:49:53.964Z,99366.71
2017-12-26T04:52:21.442Z,99361.58
2017-12-26T04:54:48.968Z,99355.00
2017-12-26T04:57:17.427Z,99351.95
2017-12-26T04:59:44.909Z,99356.30
2017-12-26T05:02:12.389Z,99346.05
2017-12-26T05:04:39.883Z,99339.33
2017-12-26T05:07:07.894Z,99339.05
2017-12-26T05:09:35.368Z,99339.05
2017-12-26T05:12:02.866Z,99330.38
2017-12-26T05:14:30.369Z,99328.41
2017-12-26T05:16:57.853Z,99324.33
2017-12-26T05:19:25.391Z,99319.98
2017-12-26T05:21:54.905Z,99312.34
2017-12-26T05:24:22.386Z,99318.68
2017-12-26T05:26:50.268Z,99313.02
2017-12-26T05:29:17.787Z,99314.46
2017-12-26T05:31:47.245Z,99318.28
2017-12-26T05:34:14.785Z,99309.06
2017-12-26T05:36:43.150Z,99313.00
2017-12-26T05:39:10.652Z,99310.78
2017-12-26T05:41:38.183Z,99308.53
2017-12-26T05:44:05.685Z,99308.30
2017-12-26T05:46:33.178Z,99315.25
2017-12-26T05:49:00.904Z,99310.67
2017-12-26T05:51:28.500Z,99302.24
2017-12-26T05:53:56.013Z,99302.91
2017-12-26T05:56:23.517Z,99298.56
2017-12-26T05:58:51.026Z,99289.98
2017-12-26T06:01:18.526Z,99286.72
2017-12-26T06:03:46.066Z,99283.17
2017-12-26T06:06:13.528Z,99278.68
2017-12-26T06:08:40.987Z,99274.09
2017-12-26T06:11:09.281Z,99273.55
2017-12-26T06:13:36.810Z,99274.59
2017-12-26T06:16:04.311Z,99271.45
2017-12-26T06:18:31.829Z,99266.69
2017-12-26T06:20:59.326Z,99269.05
2017-12-26T06:23:26.843Z,99265.91
2017-12-26T06:25:54.360Z,99262.45
2017-12-26T06:28:21.902Z,99256.00
2017-12-26T06:30:49.412Z,99255.87
2017-12-26T06:33:16.920Z,99252.98
2017-12-26T06:35:44.422Z,99245.87
2017-12-26T06:38:11.962Z,99249.83
2017-12-26T06:40:39.473Z,99247.95
2017-12-26T06:43:11.930Z,99240.60
2017-12-26T06:45:39.674Z,99237.56
2017-12-26T06:48:08.984Z,99236.52
2017-12-26T06:50:37.339Z,99233.20
2017-12-26T06:53:04.854Z,99228.74
2017-12-26T06:55:32.381Z,99224.52
2017-12-26T06:57:59.854Z,99227.15
2017-12-26T07:00:27.415Z,99220.02
2017-12-26T07:02:55.121Z,99220.68
2017-12-26T07:05:22.909Z,99216.99
2017-12-26T07:07:50.405Z,99216.34
2017-12-26T07:10:17.904Z,99206.22
2017-12-26T07:12:45.474Z,99203.45
2017-12-26T07:15:12.984Z,99198.31
2017-12-26T07:17:40.478Z,99193.44
2017-12-26T07:20:13.434Z,99191.84
2017-12-26T07:22:40.941Z,99200.37
2017-12-26T07:25:08.433Z,99195.09
2017-12-26T07:27:35.925Z,99185.73
2017-12-26T07:30:03.446Z,99190.83
2017-12-26T07:32:30.924Z,99186.06
2017-12-26T07:34:58.446Z,99183.84
2017-12-26T07:37:25.944Z,99188.14
2017-12-26T07:39:54.317Z,99186.31
2017-12-26T07:42:21.815Z,99191.84
2017-12-26T07:44:49.329Z,99187.46
2017-12-26T07:47:17.079Z,99191.39
2017-12-26T07:49:44.611Z,99186.63
2017-12-26T07:52:12.090Z,99185.95
2017-12-26T07:54:39.596Z,99180.50
2017-12-26T07:57:07.120Z,99179.01
2017-12-26T07:59:34.673Z,99181.08
2017-12-26T08:02:02.202Z,99172.66
2017-12-26T08:04:29.690Z,99169.20
2017-12-26T08:06:57.119Z,99162.59
2017-12-26T08:09:24.637Z,99155.87
2017-12-26T08:11:52.082Z,99158.98
2017-12-26T08:14:19.549Z,99159.26
2017-12-26T08:16:47.037Z,99163.66
2017-12-26T08:19:14.470Z,99161.57
2017-12-26T08:21:41.973Z,99163.53
2017-12-26T08:24:09.422Z,99146.86
2017-12-26T08:26:36.860Z,99143.91
2017-12-26T08:29:04.366Z,99143.66
2017-12-26T08:31:31.804Z,99146.30
2017-12-26T08:33:59.599Z,99147.42
2017-12-26T08:36:27.031Z,99145.23
2017-12-26T08:38:54.752Z,99138.73
2017-12-26T08:41:22.194Z,99140.91
2017-12-26T08:43:49.654Z,99139.54
2017-12-26T08:46:17.085Z,99142.38
2017-12-26T08:48:44.508Z,99139.17
2017-12-26T08:51:11.968Z,99143.62
2017-12-26T08:53:39.421Z,99138.05
2017-12-26T08:56:07.649Z,99145.31
2017-12-26T08:58:35.121Z,99143.62
2017-12-26T09:01:02.573Z,99146.11
2017-12-26T09:03:30.012Z,99145.48
2017-12-26T09:05:57.480Z,99145.60
2017-12-26T09:08:24.969Z,99136.85
2017-12-26T09:10:52.435Z,99140.98
2017-12-26T09:13:19.892Z,99125.84
2017-12-26T09:15:47.331Z,99144.68
2017-12-26T09:18:14.836Z,99145.88
2017-12-26T09:20:42.285Z,99153.91
2017-12-26T09:23:10.791Z,99152.71
2017-12-26T09:25:38.251Z,99150.96
2017-12-26T09:28:05.657Z,99137.22
2017-12-26T09:30:33.121Z,99135.98
2017-12-26T09:33:00.576Z,99148.55
2017-12-26T09:35:27.996Z,99130.42
2017-12-26T09:37:55.465Z,99121.17
2017-12-26T09:40:25.806Z,99124.09
2017-12-26T09:42:58.329Z,99124.56
2017-12-26T09:45:26.625Z,99112.95
2017-12-26T09:47:54.045Z,99116.29
2017-12-26T09:50:21.484Z,99109.91
2017-12-26T09:52:50.551Z,99103.41
2017-12-26T09:55:18.047Z,99093.17
2017-12-26T09:57:45.659Z,99093.28
2017-12-26T10:00:13.204Z,99091.05
2017-12-26T10:02:40.732Z,99089.83
2017-12-26T10:05:08.227Z,99087.37
2017-12-26T10:07:35.710Z,99077.03
2017-12-26T10:10:03.178Z,99071.08
2017-12-26T10:12:31.451Z,99078.82
2017-12-26T10:14:58.916Z,99069.86
2017-12-26T10:17:27.041Z,99055.84
2017-12-26T10:19:54.542Z,99053.84
2017-12-26T10:22:22.059Z,99049.75
2017-12-26T10:24:50.279Z,99051.02
2017-12-26T10:27:17.746Z,99047.87
2017-12-26T10:29:46.027Z,99048.45
2017-12-26T10:32:13.545Z,99044.23
2017-12-26T10:34:41.063Z,99029.66
2017-12-26T10:37:08.623Z,99025.17
2017-12-26T10:39:36.162Z,99017.47
2017-12-26T10:42:03.650Z,99009.19
2017-12-26T10:44:31.120Z,98993.98
2017-12-26T10:46:58.597Z,98990.16
2017-12-26T10:49:26.066Z,98983.57
2017-12-26T10:51:53.806Z,98983.42
2017-12-26T10:54:21.294Z,98985.49
2017-12-26T10:56:48.785Z,98979.50
2017-12-26T10:59:16.261Z,98964.37
2017-12-26T11:01:43.939Z,98964.73
2017-12-26T11:04:11.373Z,98958.67
2017-12-26T11:06:38.836Z,98949.37
2017-12-26T11:09:06.334Z,98940.45
2017-12-26T11:11:33.840Z,98937.00
2017-12-26T11:14:01.288Z,98941.35
2017-12-26T11:16:28.763Z,98932.09
2017-12-26T11:18:56.302Z,98934.14
2017-12-26T11:21:24.010Z,98924.75
2017-12-26T11:23:51.492Z,98915.87
2017-12-26T11:26:18.910Z,98921.91
2017-12-26T11:28:46.393Z,98919.78
2017-12-26T11:31:13.853Z,98927.42
2017-12-26T11:33:41.382Z,98914.98
2017-12-26T11:36:08.834Z,98917.94
2017-12-26T11:38:36.286Z,98916.95
2017-12-26T11:41:03.856Z,98918.02
2017-12-26T11:43:31.393Z,98909.28
2017-12-26T11:45:59.099Z,98893.38
2017-12-26T11:48:26.605Z,98895.69
2017-12-26T11:50:54.794Z,98892.14
2017-12-26T11:53:22.251Z,98889.37
2017-12-26T11:55:49.745Z,98873.37
2017-12-26T11:58:17.179Z,98866.14
2017-12-26T12:00:44.653Z,98855.55
2017-12-26T12:03:12.093Z,98865.84
2017-12-26T12:05:39.530Z,98867.02
2017-12-26T12:08:06.998Z,98866.70
2017-12-26T12:10:34.453Z,98858.66
2017-12-26T12:13:01.898Z,98855.92
2017-12-26T12:15:29.411Z,98849.69
2017-12-26T12:17:56.897Z,98851.23
2017-12-26T12:20:24.361Z,98851.80
2017-12-26T12:22:51.819Z,98850.63
2017-12-26T12:25:19.269Z,98839.45
2017-12-26T12:27:46.718Z,98844.86
2017-12-26T12:30:14.234Z,98848.89
2017-12-26T12:32:41.672Z,98841.40
2017-12-26T12:35:09.123Z,98838.08
2017-12-26T12:37:36.592Z,98840.27
2017-12-26T12:40:04.095Z,98847.59
2017-12-26T12:42:31.586Z,98854.12
2017-12-26T12:44:59.025Z,98847.09
2017-12-26T12:47:26.498Z,98838.45
2017-12-26T12:49:53.937Z,98831.52
2017-12-26T12:52:21.586Z,98828.39
2017-12-26T12:55:08.245Z,98831.31
2017-12-26T12:57:35.784Z,98827.80
2017-12-26T13:00:03.279Z,98824.83
2017-12-26T13:02:31.023Z,98820.00
2017-12-26T13:04:58.485Z,98824.66
2017-12-26T13:07:26.010Z,98827.70
2017-12-26T13:09:53.453Z,98823.19
2017-12-26T13:12:20.891Z,98825.75
2017-12-26T13:14:48.385Z,98825.98
2017-12-26T13:17:15.965Z,98828.80
2017-12-26T13:19:43.501Z,98841.80
2017-12-26T13:22:10.978Z,98838.97
2017-12-26T13:24:38.438Z,98838.53
2017-12-26T13:27:05.912Z,98838.97
2017-12-26T13:29:33.368Z,98824.00
2017-12-26T13:32:00.941Z,98833.94
2017-12-26T13:34:28.427Z,98841.52
2017-12-26T13:36:55.971Z,98837.47
2017-12-26T13:39:23.454Z,98833.49
2017-12-26T13:41:50.896Z,98828.80
2017-12-26T13:44:18.339Z,98829.61
2017-12-26T13:46:45.806Z,98817.75
2017-12-26T13:49:13.251Z,98829.44
2017-12-26T13:51:40.743Z,98831.41
2017-12-26T13:54:08.205Z,98836.16
2017-12-26T13:56:35.647Z,98842.02
2017-12-26T13:59:03.157Z,98837.25
2017-12-26T14:01:30.664Z,98851.40
2017-12-26T14:03:58.173Z,98861.22
2017-12-26T14:06:25.629Z,98876.06
2017-12-26T14:08:53.156Z,98880.36
2017-12-26T14:11:20.642Z,98892.45
2017-12-26T14:13:48.185Z,98905.08
2017-12-26T14:16:15.620Z,98904.13
2017-12-26T14:18:43.070Z,98908.80
2017-12-26T14:21:10.518Z,98917.80
2017-12-26T14:23:38.064Z,98920.22
2017-12-26T14:26:05.534Z,98943.64
2017-12-26T14:28:32.995Z,98940.45
2017-12-26T14:31:00.525Z,98954.22
2017-12-26T14:33:28.090Z,98963.98
2017-12-26T14:35:55.543Z,99010.15
2017-12-26T14:38:23.047Z,99011.75
2017-12-26T14:40:50.784Z,99015.88
2017-12-26T14:43:18.250Z,99014.30
2017-12-26T14:45:45.744Z,99017.23
2017-12-26T14:48:13.192Z,99018.74
2017-12-26T14:50:40.701Z,99014.69
2017-12-26T14:53:08.141Z,99003.08
2017-12-26T14:55:35.694Z,99009.73
2017-12-26T14:58:03.183Z,99005.81
2017-12-26T15:00:30.667Z,99006.69
2017-12-26T15:02:58.103Z,99017.05
2017-12-26T15:05:25.576Z,99029.72
2017-12-26T15:07:53.078Z,99030.93
2017-12-26T15:10:20.535Z,99020.83
2017-12-26T15:12:48.036Z,99025.98
2017-12-26T15:15:15.551Z,99027.45
2017-12-26T15:17:42.974Z,99034.27
2017-12-26T15:20:10.503Z,99037.03
2017-12-26T15:22:38.216Z,99037.50
2017-12-26T15:25:05.699Z,99045.10
2017-12-26T15:27:33.145Z,99048.41
2017-12-26T15:30:00.614Z,99053.84
2017-12-26T15:32:28.049Z,99057.11
2017-12-26T15:34:55.501Z,99058.94
2017-12-26T15:37:23.682Z,99054.02
2017-12-26T15:39:55.560Z,99055.89
2017-12-26T15:42:23.013Z,99056.72
2017-12-26T15:44:50.554Z,99042.97
2017-12-26T15:47:18.028Z,99057.84
2017-12-26T15:49:45.478Z,99051.78
2017-12-26T15:52:13.006Z,99042.77
2017-12-26T15:54:40.819Z,99056.86
2017-12-26T15:57:08.280Z,99056.86
2017-12-26T15:59:35.731Z,99069.22
2017-12-26T16:02:03.149Z,99063.05
2017-12-26T16:04:30.731Z,99084.53
2017-12-26T16:06:58.162Z,99086.37
2017-12-26T16:09:25.658Z,99089.58
2017-12-26T16:11:53.124Z,99095.72
2017-12-26T16:14:21.408Z,99104.36
2017-12-26T16:16:48.821Z,99114.74
2017-12-26T16:19:16.278Z,99120.80
2017-12-26T16:21:43.970Z,99119.82
2017-12-26T16:24:11.433Z,99122.91
2017-12-26T16:26:38.888Z,99136.88
2017-12-26T16:29:06.389Z,99129.14
2017-12-26T16:31:33.864Z,99127.08
2017-12-26T16:34:01.320Z,99127.78
2017-12-26T16:36:29.610Z,99127.16
2017-12-26T16:38:57.072Z,99136.02
2017-12-26T16:41:24.500Z,99136.72
2017-12-26T16:43:51.998Z,99132.23
2017-12-26T16:46:19.529Z,99134.23
2017-12-26T16:48:46.956Z,99130.63
2017-12-26T16:51:14.431Z,99131.55
2017-12-26T16:53:41.875Z,99130.38
2017-12-26T16:56:09.929Z,99134.78
2017-12-26T16:58:37.384Z,99132.91
2017-12-26T17:01:04.839Z,99136.69
2017-12-26T17:03:32.294Z,99145.83
2017-12-26T17:05:59.742Z,99141.31
2017-12-26T17:08:27.265Z,99129.28
2017-12-26T17:10:54.719Z,99121.64
2017-12-26T17:13:27.215Z,99127.55
2017-12-26T17:15:54.652Z,99124.69
2017-12-26T17:18:22.143Z,99120.88
2017-12-26T17:20:49.589Z,99120.14
2017-12-26T17:23:18.034Z,99113.17
2017-12-26T17:25:46.252Z,99110.86
2017-12-26T17:28:13.697Z,99114.23
2017-12-26T17:30:41.524Z,99109.42
2017-12-26T17:33:08.973Z,99106.49
2017-12-26T17:35:36.412Z,99110.16
2017-12-26T17:38:03.881Z,99106.59
2017-12-26T17:40:31.303Z,99112.21
2017-12-26T17:42:58.788Z,99109.34
2017-12-26T17:45:26.254Z,99117.37
2017-12-26T17:47:53.675Z,99115.83
2017-12-26T17:50:21.193Z,99121.19
2017-12-26T17:52:48.632Z,99119.82
2017-12-26T17:55:16.127Z,99115.16
2017-12-26T17:57:43.619Z,99113.91
2017-12-26T18:00:11.086Z,99114.19
2017-12-26T18:02:38.540Z,99112.22
2017-12-26T18:05:06.030Z,99104.33
2017-12-26T18:07:33.582Z,99097.69
2017-12-26T18:10:01.214Z,99098.75
2017-12-26T18:12:28.936Z,99091.96
2017-12-26T18:14:56.410Z,99087.33
2017-12-26T18:17:23.884Z,99091.19
2017-12-26T18:19:51.342Z,99090.73
2017-12-26T18:22:18.792Z,99083.08
2017-12-26T18:24:46.280Z,99093.45
2017-12-26T18:27:13.734Z,99100.56
2017-12-26T18:29:41.254Z,99093.99
2017-12-26T18:32:08.712Z,99095.64
2017-12-26T18:34:36.187Z,99091.56
2017-12-26T18:37:03.698Z,99092.80
2017-12-26T18:39:31.277Z,99098.38
2017-12-26T18:41:58.711Z,99095.25
2017-12-26T18:44:26.238Z,99091.98
2017-12-26T18:46:53.949Z,99081.46
2017-12-26T18:49:21.404Z,99078.19
2017-12-26T18:51:48.833Z,99079.66
2017-12-26T18:54:16.935Z,99063.34
2017-12-26T18:56:44.383Z,99064.95
2017-12-26T18:59:11.879Z,99072.20
2017-12-26T19:01:39.320Z,99076.42
2017-12-26T19:04:06.861Z,99077.73
2017-12-26T19:06:34.350Z,99081.55
2017-12-26T19:09:01.838Z,99076.02
2017-12-26T19:11:29.386Z,99091.81
2017-12-26T19:13:56.816Z,99084.19
2017-12-26T19:16:24.262Z,99081.18
2017-12-26T19:18:51.765Z,99071.31
2017-12-26T19:21:19.251Z,99074.61
2017-12-26T19:23:46.708Z,99070.58
2017-12-26T19:26:14.160Z,99065.47
2017-12-26T19:28:41.624Z,99053.09
2017-12-26T19:31:09.095Z,99049.39
2017-12-26T19:33:36.573Z,99039.61
2017-12-26T19:36:04.018Z,99037.77
2017-12-26T19:38:31.699Z,99045.97
2017-12-26T19:40:59.140Z,99048.76
2017-12-26T19:43:26.594Z,99054.03
2017-12-26T19:45:54.057Z,99063.84
2017-12-26T19:48:21.528Z,99058.20
2017-12-26T19:50:49.056Z,99064.21
2017-12-26T19:53:16.540Z,99071.93
2017-12-26T19:55:43.984Z,99074.28
2017-12-26T19:58:11.449Z,99075.48
2017-12-26T20:00:38.909Z,99064.53
2017-12-26T20:03:06.391Z,99066.02
2017-12-26T20:05:33.814Z,99068.03
2017-12-26T20:08:01.343Z,99072.64
2017-12-26T20:10:28.806Z,99067.08
2017-12-26T20:12:56.523Z,99063.58
2017-12-26T20:15:24.030Z,99062.17
2017-12-26T20:17:51.558Z,99065.42
2017-12-26T20:20:19.036Z,99065.48
2017-12-26T20:22:46.519Z,99069.58
2017-12-26T20:25:13.958Z,99068.29
2017-12-26T20:27:41.413Z,99056.05
2017-12-26T20:30:08.893Z,99053.92
2017-12-26T20:32:36.427Z,99054.73
2017-12-26T20:35:03.848Z,99048.22
2017-12-26T20:37:31.375Z,99044.30
2017-12-26T20:39:58.851Z,99044.15
2017-12-26T20:42:26.352Z,99032.77
2017-12-26T20:44:53.811Z,99029.21
2017-12-26T20:47:21.322Z,99026.28
2017-12-26T20:49:49.050Z,99025.36
2017-12-26T20:52:16.508Z,99030.47
2017-12-26T20:54:43.972Z,99018.34
2017-12-26T20:57:11.474Z,99013.61
2017-12-26T20:59:38.976Z,99001.09
2017-12-26T21:02:06.456Z,99009.36
2017-12-26T21:04:33.967Z,98996.84
2017-12-26T21:07:01.449Z,99002.95
2017-12-26T21:09:28.900Z,99010.97
2017-12-26T21:11:56.378Z,99013.90
2017-12-26T21:14:23.818Z,99007.97
2017-12-26T21:16:51.245Z,99008.88
2017-12-26T21:19:18.729Z,99005.84
2017-12-26T21:21:46.311Z,98997.23
2017-12-26T21:24:14.010Z,98994.08
2017-12-26T21:26:41.453Z,98985.77
2017-12-26T21:29:08.951Z,98982.06
2017-12-26T21:31:36.413Z,98978.34
2017-12-26T21:34:03.850Z,98977.67
2017-12-26T21:36:31.328Z,98972.00
2017-12-26T21:38:58.785Z,98963.94
2017-12-26T21:41:26.269Z,98966.17
2017-12-26T21:43:53.752Z,98972.30
2017-12-26T21:46:21.192Z,98968.05
2017-12-26T21:48:48.782Z,98967.19
2017-12-26T21:51:16.207Z,98967.59
2017-12-26T21:53:43.699Z,98966.79
2017-12-26T21:56:11.175Z,98964.37
2017-12-26T21:58:38.628Z,98963.83
2017-12-26T22:01:06.173Z,98959.76
2017-12-26T22:03:34.316Z,98951.73
2017-12-26T22:06:01.838Z,98959.25
2017-12-26T22:08:29.318Z,98950.93
2017-12-26T22:10:56.764Z,98946.20
2017-12-26T22:13:24.282Z,98941.70
2017-12-26T22:15:51.816Z,98942.77
2017-12-26T22:18:19.287Z,98939.20
2017-12-26T22:20:46.781Z,98953.31
2017-12-26T22:23:14.530Z,98944.63
2017-12-26T22:25:42.050Z,98944.00
2017-12-26T22:28:09.808Z,98943.89
2017-12-26T22:30:37.304Z,98939.02
2017-12-26T22:33:05.577Z,98934.87
2017-12-26T22:35:33.030Z,98932.38
2017-12-26T22:38:00.511Z,98924.94
2017-12-26T22:40:28.220Z,98915.15
2017-12-26T22:42:55.714Z,98910.68
2017-12-26T22:45:23.883Z,98917.74
2017-12-26T22:47:51.365Z,98919.20
2017-12-26T22:50:18.816Z,98915.77
2017-12-26T22:52:46.510Z,98917.00
2017-12-26T22:55:13.944Z,98911.50
2017-12-26T22:57:41.473Z,98909.75
2017-12-26T23:00:08.981Z,98904.59
2017-12-26T23:02:36.494Z,98898.15
2017-12-26T23:05:04.649Z,98882.62
2017-12-26T23:07:32.122Z,98887.20
2017-12-26T23:09:59.543Z,98880.64
2017-12-26T23:12:26.990Z,98872.63
2017-12-26T23:14:59.944Z,98865.30
2017-12-26T23:17:32.929Z,98862.22
2017-12-26T23:20:05.857Z,98851.94
2017-12-26T23:22:33.327Z,98853.72
2017-12-26T23:25:06.276Z,98847.50
2017-12-26T23:27:39.194Z,98845.02
2017-12-26T23:30:12.129Z,98836.48
2017-12-26T23:32:45.026Z,98834.25
2017-12-26T23:35:17.984Z,98834.47
2017-12-26T23:37:50.931Z,98822.34
2017-12-26T23:40:23.947Z,98819.83
2017-12-26T23:42:57.789Z,98816.78
2017-12-26T23:45:30.732Z,98805.80
2017-12-26T23:48:03.635Z,98804.27
2017-12-26T23:50:36.699Z,98795.84
2017-12-26T23:53:09.679Z,98800.61
2017-12-26T23:55:43.347Z,98797.56
2017-12-26T23:58:17.254Z,98791.30
